Time;durP1;ratioP1;P1;durP2;ratioP2;P2;SDS_P1;SDS_P2;PMS_P1;PMS_P2;Temp;Humidity;BMP_temperature;BMP_pressure;BME280_temperature;BME280_humidity;BME280_pressure;Samples;Min_cycle;Max_cycle;Signal;HPM_P1;HPM_P2
2023/09/22 00:00:18;;;;;;;1.27;1.17;;;14.60;99.90;;;;;;467027;254;28752;-71
2023/09/22 00:02:18;;;;;;;3.40;1.50;;;14.50;99.90;;;;;;467115;253;28550;-72
2023/09/22 00:04:19;;;;;;;1.87;1.70;;;14.50;99.90;;;;;;467138;253;28545;-71
2023/09/22 00:06:22;;;;;;;3.20;1.93;;;14.50;99.90;;;;;;467146;253;28867;-71
2023/09/22 00:08:22;;;;;;;1.43;1.33;;;14.50;99.90;;;;;;467139;254;28552;-73
2023/09/22 00:10:23;;;;;;;2.03;1.43;;;14.50;99.90;;;;;;467142;253;28834;-71
2023/09/22 00:12:24;;;;;;;2.40;1.20;;;14.40;99.90;;;;;;467152;253;28539;-71
2023/09/22 00:14:26;;;;;;;1.70;1.43;;;14.40;99.90;;;;;;467127;253;28584;-71
2023/09/22 00:16:27;;;;;;;3.03;1.60;;;14.50;99.90;;;;;;467142;253;28835;-71
2023/09/22 00:18:28;;;;;;;1.90;1.53;;;14.50;99.90;;;;;;467162;253;29247;-71
2023/09/22 00:20:30;;;;;;;3.33;1.30;;;14.40;99.90;;;;;;467147;253;29593;-71
2023/09/22 00:22:31;;;;;;;2.53;1.30;;;14.50;99.90;;;;;;467134;253;29352;-71
2023/09/22 00:24:32;;;;;;;1.60;1.50;;;14.50;99.90;;;;;;467121;253;28970;-71
2023/09/22 00:26:33;;;;;;;3.17;1.63;;;14.50;99.90;;;;;;467178;253;28921;-71
2023/09/22 00:28:34;;;;;;;1.50;1.40;;;14.50;99.90;;;;;;467144;253;28978;-72
2023/09/22 00:30:36;;;;;;;1.30;1.20;;;14.40;99.90;;;;;;467163;253;28862;-71
2023/09/22 00:32:37;;;;;;;1.23;1.13;;;14.40;99.90;;;;;;467136;254;28557;-71
2023/09/22 00:34:38;;;;;;;1.37;1.27;;;14.30;99.90;;;;;;467184;253;29052;-72
2023/09/22 00:36:39;;;;;;;1.40;1.30;;;14.30;99.90;;;;;;467158;254;28521;-71
2023/09/22 00:38:41;;;;;;;1.50;1.40;;;14.20;99.90;;;;;;467139;253;28311;-72
2023/09/22 00:40:42;;;;;;;2.10;1.30;;;14.20;99.90;;;;;;467125;249;28635;-71
2023/09/22 00:42:43;;;;;;;1.50;1.40;;;14.20;99.90;;;;;;467163;249;28888;-71
2023/09/22 00:44:44;;;;;;;1.87;1.40;;;14.20;99.90;;;;;;467181;253;29445;-72
2023/09/22 00:46:46;;;;;;;2.17;1.43;;;14.20;99.90;;;;;;467162;253;28868;-71
2023/09/22 00:48:47;;;;;;;2.87;1.50;;;14.10;99.90;;;;;;467135;253;28964;-71
2023/09/22 00:50:48;;;;;;;5.10;1.67;;;14.10;99.90;;;;;;467147;253;28454;-71
2023/09/22 00:52:49;;;;;;;1.60;1.50;;;14.00;99.90;;;;;;467169;249;28265;-71
2023/09/22 00:54:51;;;;;;;6.83;1.70;;;14.00;99.90;;;;;;467143;253;28493;-72
2023/09/22 00:56:52;;;;;;;1.40;1.30;;;14.00;99.90;;;;;;467135;249;28275;-71
2023/09/22 00:58:53;;;;;;;1.50;1.40;;;14.00;99.90;;;;;;467140;253;28211;-72
2023/09/22 01:00:54;;;;;;;1.50;1.40;;;14.00;99.90;;;;;;467151;254;28292;-74
2023/09/22 01:02:56;;;;;;;5.47;1.60;;;14.00;99.90;;;;;;467133;253;28150;-70
2023/09/22 01:04:57;;;;;;;1.57;1.43;;;13.90;99.90;;;;;;467127;253;28314;-72
2023/09/22 01:06:58;;;;;;;1.60;1.47;;;13.90;99.90;;;;;;467135;253;28928;-71
2023/09/22 01:09:05;;;;;;;1.63;1.53;;;13.80;99.90;;;;;;467115;253;28697;-71
2023/09/22 01:11:01;;;;;;;1.90;1.70;;;13.80;99.90;;;;;;466821;254;28767;-73
2023/09/22 01:13:02;;;;;;;2.03;1.37;;;13.80;99.90;;;;;;467139;253;28285;-71
2023/09/22 01:15:03;;;;;;;1.50;1.40;;;13.80;99.90;;;;;;467081;254;28501;-72
2023/09/22 01:17:06;;;;;;;1.70;1.40;;;13.80;99.90;;;;;;467111;253;28354;-71
2023/09/22 01:19:07;;;;;;;1.37;1.27;;;13.70;99.90;;;;;;467094;254;28523;-71
2023/09/22 01:21:07;;;;;;;2.57;1.80;;;13.70;99.90;;;;;;467090;254;28211;-73
2023/09/22 01:23:08;;;;;;;1.33;1.23;;;13.70;99.90;;;;;;467144;254;28384;-71
2023/09/22 01:25:10;;;;;;;1.17;1.17;;;13.70;99.90;;;;;;467122;253;28262;-71
2023/09/22 01:27:11;;;;;;;1.50;1.40;;;13.70;99.90;;;;;;467148;253;28381;-71
2023/09/22 01:29:12;;;;;;;1.70;1.60;;;13.70;99.90;;;;;;467171;253;28723;-71
2023/09/22 01:31:13;;;;;;;1.53;1.40;;;13.70;99.90;;;;;;467164;253;28892;-71
2023/09/22 01:33:14;;;;;;;2.30;1.30;;;13.70;99.90;;;;;;467145;253;28752;-71
2023/09/22 01:35:16;;;;;;;1.70;1.60;;;13.70;99.90;;;;;;467163;253;28262;-71
2023/09/22 01:37:17;;;;;;;1.97;1.50;;;13.80;99.90;;;;;;467171;250;28197;-72
2023/09/22 01:39:18;;;;;;;1.47;1.30;;;13.70;99.90;;;;;;467125;253;28235;-71
2023/09/22 01:41:19;;;;;;;1.70;1.50;;;13.70;99.90;;;;;;467159;253;28449;-71
2023/09/22 01:43:21;;;;;;;1.70;1.60;;;13.70;99.90;;;;;;467127;254;28353;-71
2023/09/22 01:45:22;;;;;;;4.70;1.40;;;13.70;99.90;;;;;;467134;253;28314;-71
2023/09/22 01:47:23;;;;;;;1.50;1.40;;;13.70;99.90;;;;;;467168;253;28228;-71
2023/09/22 01:49:25;;;;;;;1.67;1.30;;;13.60;99.90;;;;;;467140;253;28252;-71
2023/09/22 01:51:26;;;;;;;4.70;2.10;;;13.60;99.90;;;;;;467121;254;28857;-72
2023/09/22 01:53:27;;;;;;;2.03;1.30;;;13.60;99.90;;;;;;467120;253;29737;-71
2023/09/22 01:55:28;;;;;;;3.00;1.37;;;13.60;99.90;;;;;;467127;253;28629;-71
2023/09/22 01:57:29;;;;;;;1.50;1.40;;;13.60;99.90;;;;;;467166;254;28831;-72
2023/09/22 01:59:31;;;;;;;2.80;1.40;;;13.50;99.90;;;;;;467187;253;28840;-71
2023/09/22 02:01:33;;;;;;;1.43;1.07;;;13.50;99.90;;;;;;467127;253;28231;-71
2023/09/22 02:03:33;;;;;;;4.63;1.30;;;13.50;99.90;;;;;;467152;249;28315;-71
2023/09/22 02:05:36;;;;;;;2.20;1.40;;;;;;;;;;467162;254;28450;-71
2023/09/22 02:07:37;;;;;;;1.20;1.10;;;13.40;99.90;;;;;;467144;254;26979;-71
2023/09/22 02:09:38;;;;;;;1.40;1.30;;;13.40;99.90;;;;;;467150;253;28787;-71
2023/09/22 02:11:40;;;;;;;2.80;1.43;;;13.40;99.90;;;;;;467177;253;28889;-74
2023/09/22 02:13:41;;;;;;;1.73;1.63;;;13.40;99.90;;;;;;467168;253;28320;-71
2023/09/22 02:15:42;;;;;;;1.23;1.17;;;13.40;99.90;;;;;;467183;253;28191;-71
2023/09/22 02:17:46;;;;;;;1.47;1.20;;;;;;;;;;467194;249;28397;-71
2023/09/22 02:19:46;;;;;;;1.80;1.47;;;13.40;99.90;;;;;;467269;250;26592;-72
2023/09/22 02:21:47;;;;;;;1.50;1.40;;;13.40;99.90;;;;;;467163;250;28640;-71
2023/09/22 02:23:48;;;;;;;1.60;1.30;;;13.50;99.90;;;;;;467180;253;28687;-72
2023/09/22 02:25:49;;;;;;;7.43;1.70;;;13.50;99.90;;;;;;467154;254;29034;-71
2023/09/22 02:27:54;;;;;;;2.30;1.60;;;13.40;99.90;;;;;;467148;249;28194;-71
2023/09/22 02:29:52;;;;;;;1.67;1.30;;;13.40;99.90;;;;;;466728;254;28267;-72
2023/09/22 02:31:54;;;;;;;1.60;1.40;;;;;;;;;;467135;253;28326;-71
2023/09/22 02:33:57;;;;;;;1.40;1.30;;;;;;;;;;467087;249;26419;-71
2023/09/22 02:35:59;;;;;;;2.53;1.30;;;13.50;99.90;;;;;;467156;253;26579;-72
2023/09/22 02:37:59;;;;;;;1.40;1.30;;;13.50;99.90;;;;;;467112;253;28284;-71
2023/09/22 02:40:01;;;;;;;1.77;1.20;;;13.60;99.90;;;;;;467197;253;28956;-71
2023/09/22 02:42:02;;;;;;;4.63;1.37;;;13.60;99.90;;;;;;467213;253;28260;-71
2023/09/22 02:44:06;;;;;;;1.40;1.30;;;13.60;99.90;;;;;;467247;253;28338;-71
2023/09/22 02:46:04;;;;;;;1.00;1.00;;;13.50;99.90;;;;;;467006;254;28322;-72
2023/09/22 02:48:06;;;;;;;1.40;1.30;;;13.50;99.90;;;;;;467153;253;28915;-71
2023/09/22 02:50:09;;;;;;;2.77;1.97;;;13.50;99.90;;;;;;467158;253;28928;-71
2023/09/22 02:52:08;;;;;;;1.80;1.40;;;13.50;99.90;;;;;;467014;254;29066;-72
2023/09/22 02:54:09;;;;;;;5.40;1.47;;;13.60;99.90;;;;;;467181;254;28385;-71
2023/09/22 02:56:10;;;;;;;2.80;1.40;;;13.60;99.90;;;;;;467198;253;28410;-72
2023/09/22 02:58:12;;;;;;;1.50;1.40;;;13.60;99.90;;;;;;467161;254;28259;-71
2023/09/22 03:00:20;;;;;;;1.37;1.10;;;13.60;99.90;;;;;;467180;253;28241;-71
2023/09/22 03:02:20;;;;;;;0.93;0.93;;;13.60;99.90;;;;;;467201;253;28820;-73
2023/09/22 03:04:21;;;;;;;2.73;1.37;;;13.60;99.90;;;;;;467235;253;28852;-71
2023/09/22 03:06:23;;;;;;;5.57;1.40;;;13.70;99.90;;;;;;467201;253;28440;-71
2023/09/22 03:08:24;;;;;;;2.17;1.70;;;13.60;99.90;;;;;;467216;254;28394;-71
2023/09/22 03:10:25;;;;;;;1.50;1.40;;;13.70;99.90;;;;;;467199;253;28392;-71
2023/09/22 03:12:27;;;;;;;1.60;1.50;;;13.70;99.90;;;;;;467237;253;28303;-72
2023/09/22 03:14:28;;;;;;;2.00;1.43;;;13.70;99.90;;;;;;467218;253;28495;-71
2023/09/22 03:16:31;;;;;;;3.03;1.30;;;;;;;;;;467199;253;28330;-71
2023/09/22 03:18:31;;;;;;;3.07;1.23;;;13.70;99.90;;;;;;467212;254;26651;-72
2023/09/22 03:20:34;;;;;;;3.07;1.53;;;;;;;;;;467204;253;28365;-71
2023/09/22 03:22:35;;;;;;;2.47;1.40;;;13.60;99.90;;;;;;467195;253;27103;-71
2023/09/22 03:24:36;;;;;;;2.33;1.47;;;13.70;99.90;;;;;;467191;253;29777;-71
2023/09/22 03:26:38;;;;;;;1.60;1.10;;;13.70;99.90;;;;;;467222;253;28869;-72
2023/09/22 03:28:39;;;;;;;1.37;1.20;;;13.60;99.90;;;;;;467196;253;28778;-72
2023/09/22 03:30:40;;;;;;;1.20;1.10;;;13.60;99.90;;;;;;467172;253;28820;-71
2023/09/22 03:32:41;;;;;;;4.43;1.63;;;13.60;99.90;;;;;;467204;253;28307;-72
2023/09/22 03:34:43;;;;;;;5.33;2.60;;;13.60;99.90;;;;;;467207;253;28325;-73
2023/09/22 03:36:44;;;;;;;2.30;2.10;;;13.60;99.90;;;;;;467182;249;28370;-71
2023/09/22 03:38:47;;;;;;;1.73;1.63;;;13.70;99.90;;;;;;467162;253;28299;-71
2023/09/22 03:40:46;;;;;;;1.50;1.40;;;13.70;99.90;;;;;;467094;254;28188;-71
2023/09/22 03:42:48;;;;;;;1.80;1.40;;;13.70;99.90;;;;;;467137;254;28375;-71
2023/09/22 03:44:49;;;;;;;3.47;1.40;;;13.80;99.90;;;;;;467193;249;28260;-71
2023/09/22 03:46:50;;;;;;;2.90;1.20;;;13.70;99.90;;;;;;467149;253;28322;-71
2023/09/22 03:48:51;;;;;;;2.20;1.60;;;13.80;99.90;;;;;;467144;253;28293;-71
2023/09/22 03:50:56;;;;;;;1.43;1.30;;;13.70;99.90;;;;;;467135;253;29480;-71
2023/09/22 03:52:54;;;;;;;3.13;1.40;;;13.70;99.90;;;;;;466897;254;28719;-71
2023/09/22 03:54:55;;;;;;;1.50;1.40;;;13.70;99.90;;;;;;467176;249;28765;-71
2023/09/22 03:56:57;;;;;;;1.70;1.13;;;13.70;99.90;;;;;;467147;254;28476;-71
2023/09/22 03:58:58;;;;;;;1.73;1.43;;;13.70;99.90;;;;;;467110;254;28255;-72
2023/09/22 04:01:00;;;;;;;1.50;1.30;;;13.70;99.90;;;;;;467111;254;28228;-71
2023/09/22 04:03:00;;;;;;;6.70;1.53;;;13.70;99.90;;;;;;467105;254;28196;-71
2023/09/22 04:05:01;;;;;;;1.40;1.30;;;13.80;99.90;;;;;;467153;253;28525;-72
2023/09/22 04:07:03;;;;;;;2.43;1.30;;;13.80;99.90;;;;;;467144;253;28650;-71
2023/09/22 04:09:04;;;;;;;1.10;1.10;;;13.80;99.90;;;;;;467144;253;28215;-71
2023/09/22 04:11:05;;;;;;;1.40;1.20;;;13.80;99.90;;;;;;467128;253;28453;-72
2023/09/22 04:13:06;;;;;;;1.43;1.33;;;13.80;99.90;;;;;;467181;253;28169;-71
2023/09/22 04:15:08;;;;;;;1.10;1.10;;;13.80;99.90;;;;;;467138;253;28671;-71
2023/09/22 04:17:09;;;;;;;2.87;1.70;;;13.80;99.90;;;;;;467118;253;28825;-71
2023/09/22 04:19:10;;;;;;;1.47;1.30;;;13.80;99.90;;;;;;467087;253;28767;-71
2023/09/22 04:21:12;;;;;;;2.20;1.47;;;13.80;99.90;;;;;;467181;253;28322;-72
2023/09/22 04:23:13;;;;;;;2.20;1.20;;;13.80;99.90;;;;;;467151;254;28262;-71
2023/09/22 04:25:19;;;;;;;1.50;1.30;;;13.80;99.90;;;;;;467160;253;28273;-72
2023/09/22 04:27:16;;;;;;;1.50;1.20;;;13.80;99.90;;;;;;466863;254;28287;-72
2023/09/22 04:29:17;;;;;;;1.33;1.23;;;13.80;99.90;;;;;;467157;254;28191;-71
2023/09/22 04:31:18;;;;;;;2.40;1.70;;;13.80;99.90;;;;;;467162;253;28335;-72
2023/09/22 04:33:20;;;;;;;2.53;1.30;;;13.80;99.90;;;;;;467176;253;28265;-71
2023/09/22 04:35:21;;;;;;;1.50;1.40;;;13.80;99.90;;;;;;467114;254;28219;-71
2023/09/22 04:37:23;;;;;;;1.30;1.20;;;13.80;99.90;;;;;;467152;253;28299;-72
2023/09/22 04:39:23;;;;;;;6.00;1.30;;;13.80;99.90;;;;;;467107;254;28843;-71
2023/09/22 04:41:24;;;;;;;1.10;1.10;;;13.80;99.90;;;;;;467105;254;28716;-71
2023/09/22 04:43:25;;;;;;;3.87;1.30;;;13.80;99.90;;;;;;467133;253;28632;-71
2023/09/22 04:45:26;;;;;;;1.33;1.20;;;13.80;99.90;;;;;;467161;253;28532;-70
2023/09/22 04:47:28;;;;;;;2.00;1.70;;;13.80;99.90;;;;;;467163;253;28307;-73
2023/09/22 04:49:29;;;;;;;1.40;1.30;;;13.80;99.90;;;;;;467158;253;28168;-71
2023/09/22 04:51:30;;;;;;;1.40;1.30;;;13.80;99.90;;;;;;467139;253;28530;-72
2023/09/22 04:53:32;;;;;;;1.60;1.40;;;13.80;99.90;;;;;;467143;253;28308;-72
2023/09/22 04:55:37;;;;;;;1.37;1.27;;;13.80;99.90;;;;;;467131;253;28481;-72
2023/09/22 04:57:38;;;;;;;3.37;1.40;;;13.80;99.90;;;;;;467161;253;28467;-71
2023/09/22 04:59:40;;;;;;;2.43;1.20;;;13.80;99.90;;;;;;467118;253;28240;-71
2023/09/22 05:01:41;;;;;;;1.23;1.10;;;13.80;99.90;;;;;;467162;254;28896;-71
2023/09/22 05:03:45;;;;;;;1.47;1.17;;;;;;;;;;467123;249;28682;-71
2023/09/22 05:05:45;;;;;;;1.80;0.90;;;13.70;99.90;;;;;;467227;250;26568;-71
2023/09/22 05:07:46;;;;;;;1.53;1.20;;;13.80;99.90;;;;;;467129;253;28842;-72
2023/09/22 05:09:47;;;;;;;1.87;1.20;;;13.80;99.90;;;;;;467156;253;28351;-71
2023/09/22 05:11:48;;;;;;;1.63;1.33;;;13.80;99.90;;;;;;467179;253;28200;-71
2023/09/22 05:13:50;;;;;;;2.00;1.07;;;13.80;99.90;;;;;;467146;253;28755;-71
2023/09/22 05:15:51;;;;;;;1.90;1.30;;;13.80;99.90;;;;;;467148;253;28807;-71
2023/09/22 05:17:52;;;;;;;1.80;1.40;;;13.80;99.90;;;;;;467141;253;29076;-74
2023/09/22 05:19:53;;;;;;;2.30;1.30;;;13.80;99.90;;;;;;467157;254;28843;-71
2023/09/22 05:21:55;;;;;;;1.30;1.20;;;13.80;99.90;;;;;;467169;253;28301;-71
2023/09/22 05:23:56;;;;;;;1.90;1.37;;;13.80;99.90;;;;;;467173;253;28189;-71
2023/09/22 05:25:57;;;;;;;1.50;1.40;;;13.80;99.90;;;;;;467171;253;28236;-71
2023/09/22 05:27:58;;;;;;;3.73;1.93;;;13.80;99.90;;;;;;467160;253;28216;-72
2023/09/22 05:30:00;;;;;;;1.30;1.20;;;13.70;99.90;;;;;;467173;253;28194;-71
2023/09/22 05:32:01;;;;;;;1.37;1.30;;;13.80;99.90;;;;;;467100;253;28247;-72
2023/09/22 05:34:02;;;;;;;1.40;1.30;;;13.80;99.90;;;;;;467086;254;28290;-71
2023/09/22 05:36:05;;;;;;;2.30;1.37;;;13.80;99.90;;;;;;467151;249;28179;-71
2023/09/22 05:38:05;;;;;;;1.60;1.50;;;13.80;99.90;;;;;;467079;253;28251;-72
2023/09/22 05:40:12;;;;;;;1.70;1.60;;;13.80;99.90;;;;;;467106;254;29154;-71
2023/09/22 05:42:07;;;;;;;3.87;1.30;;;13.80;99.90;;;;;;466732;254;28785;-71
2023/09/22 05:44:10;;;;;;;1.60;1.20;;;;;;;;;;467174;253;28988;-71
2023/09/22 05:46:11;;;;;;;3.53;1.20;;;13.80;99.90;;;;;;467156;253;26465;-71
2023/09/22 05:48:12;;;;;;;3.10;1.23;;;13.80;99.90;;;;;;467059;253;28274;-71
2023/09/22 05:50:13;;;;;;;3.43;1.23;;;13.80;99.90;;;;;;467163;253;28546;-71
2023/09/22 05:52:15;;;;;;;1.37;1.27;;;13.80;99.90;;;;;;467165;254;28321;-72
2023/09/22 05:54:16;;;;;;;1.40;1.23;;;13.90;99.90;;;;;;467166;250;28268;-71
2023/09/22 05:56:17;;;;;;;6.03;1.30;;;13.80;99.90;;;;;;467162;253;28378;-71
2023/09/22 05:58:18;;;;;;;2.07;1.30;;;13.90;99.90;;;;;;467119;250;28177;-71
2023/09/22 06:00:20;;;;;;;1.30;1.20;;;13.80;99.90;;;;;;467155;254;28199;-72
2023/09/22 06:02:21;;;;;;;2.23;1.60;;;13.80;99.90;;;;;;467149;254;28329;-73
2023/09/22 06:04:22;;;;;;;1.80;1.20;;;13.80;99.90;;;;;;467133;253;28168;-71
2023/09/22 06:06:24;;;;;;;2.03;1.40;;;13.80;99.90;;;;;;467152;253;28973;-72
2023/09/22 06:08:25;;;;;;;1.87;1.77;;;13.80;99.90;;;;;;467133;253;29405;-71
2023/09/22 06:10:26;;;;;;;1.30;1.20;;;13.80;99.90;;;;;;467168;253;28728;-71
2023/09/22 06:12:27;;;;;;;1.57;1.30;;;13.90;99.90;;;;;;467175;253;28979;-71
2023/09/22 06:14:28;;;;;;;1.60;1.50;;;13.80;99.90;;;;;;467157;254;28265;-71
2023/09/22 06:16:30;;;;;;;1.50;1.40;;;13.80;99.90;;;;;;467153;253;28295;-71
2023/09/22 06:18:31;;;;;;;3.23;1.50;;;13.80;99.90;;;;;;467170;254;28411;-72
2023/09/22 06:20:32;;;;;;;2.10;1.40;;;13.80;99.90;;;;;;467194;253;28615;-71
2023/09/22 06:22:33;;;;;;;1.43;1.33;;;13.90;99.90;;;;;;467179;253;28319;-71
2023/09/22 06:24:35;;;;;;;1.57;1.47;;;13.90;99.90;;;;;;467178;253;28490;-71
2023/09/22 06:26:36;;;;;;;2.33;1.30;;;13.90;99.90;;;;;;467155;254;28295;-71
2023/09/22 06:28:38;;;;;;;2.20;1.33;;;;;;;;;;467190;253;28348;-71
2023/09/22 06:30:41;;;;;;;2.93;1.40;;;13.80;99.90;;;;;;467153;254;26439;-71
2023/09/22 06:32:41;;;;;;;2.03;1.60;;;13.80;99.90;;;;;;467107;254;28210;-71
2023/09/22 06:34:43;;;;;;;1.50;1.40;;;13.80;99.90;;;;;;467128;253;28397;-71
2023/09/22 06:36:46;;;;;;;2.30;2.10;;;;;;;;;;467167;253;28905;-71
2023/09/22 06:38:46;;;;;;;1.57;1.47;;;13.80;99.90;;;;;;467208;251;26988;-71
2023/09/22 06:40:47;;;;;;;1.27;1.17;;;13.90;99.90;;;;;;467120;253;28297;-71
2023/09/22 06:42:48;;;;;;;3.43;1.40;;;13.90;99.90;;;;;;467148;254;28525;-71
2023/09/22 06:44:49;;;;;;;3.13;1.43;;;13.90;99.90;;;;;;467156;254;28441;-72
2023/09/22 06:46:51;;;;;;;2.50;1.47;;;13.90;99.90;;;;;;467134;253;28349;-71
2023/09/22 06:48:52;;;;;;;3.40;1.70;;;13.90;99.90;;;;;;467126;249;28224;-71
2023/09/22 06:50:53;;;;;;;1.60;1.50;;;14.00;99.90;;;;;;467151;253;28324;-72
2023/09/22 06:52:54;;;;;;;2.53;2.10;;;13.90;99.90;;;;;;467177;253;28400;-72
2023/09/22 06:54:56;;;;;;;1.50;1.40;;;14.00;99.90;;;;;;467174;253;28456;-71
2023/09/22 06:56:57;;;;;;;2.03;1.70;;;14.00;99.90;;;;;;467159;254;28360;-71
2023/09/22 06:58:59;;;;;;;2.27;1.33;;;14.00;99.90;;;;;;467164;253;28753;-71
2023/09/22 07:00:59;;;;;;;2.13;1.50;;;14.00;99.90;;;;;;467165;253;29366;-72
2023/09/22 07:03:01;;;;;;;1.90;1.50;;;14.00;99.90;;;;;;467170;254;28720;-71
2023/09/22 07:05:02;;;;;;;2.00;1.80;;;14.00;99.90;;;;;;467149;253;28629;-71
2023/09/22 07:07:04;;;;;;;3.37;1.67;;;13.90;99.90;;;;;;467140;253;28891;-71
2023/09/22 07:09:09;;;;;;;2.40;1.87;;;14.00;99.90;;;;;;467129;254;28624;-72
2023/09/22 07:11:08;;;;;;;4.50;2.07;;;14.00;99.90;;;;;;466834;254;28421;-73
2023/09/22 07:13:07;;;;;;;2.67;2.30;;;14.00;99.90;;;;;;467068;254;28836;-71
2023/09/22 07:15:08;;;;;;;2.13;1.77;;;14.00;99.90;;;;;;467008;254;28228;-71
2023/09/22 07:17:10;;;;;;;2.10;1.93;;;14.10;99.90;;;;;;467083;254;28413;-71
2023/09/22 07:19:11;;;;;;;4.93;1.90;;;14.20;99.90;;;;;;467180;253;28404;-71
2023/09/22 07:21:12;;;;;;;2.23;1.50;;;14.30;99.90;;;;;;467069;254;28622;-72
2023/09/22 07:23:14;;;;;;;2.77;2.17;;;14.40;99.90;;;;;;467157;254;28864;-71
2023/09/22 07:25:15;;;;;;;4.27;1.90;;;14.40;99.90;;;;;;467140;253;29461;-71
2023/09/22 07:27:16;;;;;;;3.27;2.10;;;14.40;99.90;;;;;;467160;249;29411;-74
2023/09/22 07:29:17;;;;;;;2.90;1.60;;;14.40;99.90;;;;;;467155;254;28975;-71
2023/09/22 07:31:18;;;;;;;3.07;1.50;;;14.40;99.90;;;;;;467040;254;28943;-72
2023/09/22 07:33:20;;;;;;;5.40;1.70;;;14.40;99.90;;;;;;467145;253;28825;-71
2023/09/22 07:35:21;;;;;;;3.47;1.90;;;14.50;99.90;;;;;;467142;253;28925;-71
2023/09/22 07:37:22;;;;;;;5.60;1.90;;;14.50;99.90;;;;;;467200;249;28669;-73
2023/09/22 07:39:23;;;;;;;3.27;2.00;;;14.40;99.90;;;;;;467153;253;28925;-71
2023/09/22 07:41:25;;;;;;;3.17;1.83;;;14.40;99.90;;;;;;467152;253;28880;-72
2023/09/22 07:43:29;;;;;;;3.17;1.97;;;14.40;99.90;;;;;;467112;253;28812;-71
2023/09/22 07:45:28;;;;;;;2.83;1.53;;;14.50;99.90;;;;;;466990;254;28435;-71
2023/09/22 07:47:28;;;;;;;8.10;1.60;;;14.50;99.90;;;;;;467137;253;29229;-73
2023/09/22 07:49:30;;;;;;;1.57;1.37;;;14.60;99.90;;;;;;467135;253;29285;-71
2023/09/22 07:51:31;;;;;;;1.40;1.30;;;14.70;99.90;;;;;;467158;253;29358;-71
2023/09/22 07:53:33;;;;;;;5.40;2.20;;;14.80;99.90;;;;;;467158;249;29284;-73
2023/09/22 07:55:33;;;;;;;1.70;1.50;;;15.00;99.90;;;;;;467174;254;28816;-71
2023/09/22 07:57:35;;;;;;;3.07;1.40;;;14.90;99.90;;;;;;467160;254;28849;-72
2023/09/22 07:59:36;;;;;;;3.90;1.70;;;14.80;99.90;;;;;;467122;254;28901;-71
2023/09/22 08:01:37;;;;;;;3.30;1.53;;;14.60;99.90;;;;;;467149;253;28887;-71
2023/09/22 08:03:38;;;;;;;1.70;1.60;;;14.70;99.90;;;;;;467156;253;29306;-72
2023/09/22 08:05:40;;;;;;;3.40;1.47;;;14.70;99.90;;;;;;467172;254;28843;-72
2023/09/22 08:07:42;;;;;;;3.43;1.70;;;14.70;99.90;;;;;;467164;253;28869;-71
2023/09/22 08:09:42;;;;;;;7.40;1.93;;;14.70;99.90;;;;;;467105;254;28867;-71
2023/09/22 08:11:43;;;;;;;6.63;1.57;;;14.70;99.90;;;;;;467139;253;28869;-72
2023/09/22 08:13:48;;;;;;;4.90;2.00;;;14.90;99.90;;;;;;467134;254;29370;-72
2023/09/22 08:15:46;;;;;;;2.83;1.37;;;15.00;99.90;;;;;;466835;254;28821;-71
2023/09/22 08:17:47;;;;;;;2.50;1.40;;;15.00;99.90;;;;;;467147;253;28845;-71
2023/09/22 08:19:49;;;;;;;2.20;1.13;;;14.90;99.90;;;;;;467177;253;28944;-71
2023/09/22 08:21:50;;;;;;;5.77;1.87;;;14.90;99.90;;;;;;467114;253;29266;-72
2023/09/22 08:23:51;;;;;;;1.63;1.53;;;14.80;99.90;;;;;;467145;253;29347;-72
2023/09/22 08:25:56;;;;;;;2.33;1.30;;;14.90;99.90;;;;;;467149;253;29333;-71
2023/09/22 08:27:54;;;;;;;2.70;1.63;;;14.80;99.90;;;;;;466915;254;29336;-71
2023/09/22 08:29:55;;;;;;;2.23;1.20;;;14.80;99.90;;;;;;467135;253;28884;-73
2023/09/22 08:31:58;;;;;;;1.67;1.40;;;14.80;99.90;;;;;;467166;249;28889;-71
2023/09/22 08:33:57;;;;;;;2.13;1.37;;;14.90;99.90;;;;;;467069;253;28892;-72
2023/09/22 08:35:58;;;;;;;2.47;1.47;;;14.90;99.90;;;;;;467138;250;28837;-71
2023/09/22 08:38:02;;;;;;;4.30;1.37;;;14.90;99.90;;;;;;467132;253;28865;-72
2023/09/22 08:40:01;;;;;;;5.63;1.90;;;15.00;99.90;;;;;;466951;250;28553;-72
2023/09/22 08:42:02;;;;;;;2.50;1.40;;;15.00;99.90;;;;;;467158;254;29014;-71
2023/09/22 08:44:03;;;;;;;1.63;1.50;;;15.00;99.90;;;;;;467112;253;29059;-71
2023/09/22 08:46:05;;;;;;;3.53;1.70;;;14.90;99.90;;;;;;467142;253;28827;-72
2023/09/22 08:48:07;;;;;;;3.87;1.90;;;14.80;99.90;;;;;;467136;253;29324;-71
2023/09/22 08:50:07;;;;;;;3.23;2.10;;;14.80;99.90;;;;;;467117;254;29379;-72
2023/09/22 08:52:09;;;;;;;2.43;2.20;;;14.70;99.90;;;;;;467136;253;29375;-71
2023/09/22 08:54:11;;;;;;;1.90;1.80;;;14.80;99.90;;;;;;467148;254;28937;-72
2023/09/22 08:56:11;;;;;;;2.07;1.97;;;14.90;99.90;;;;;;467106;253;28992;-71
2023/09/22 08:58:12;;;;;;;2.57;1.97;;;15.10;99.90;;;;;;467149;253;28858;-71
2023/09/22 09:00:18;;;;;;;5.67;2.57;;;15.10;99.90;;;;;;467144;254;28890;-71
2023/09/22 09:02:15;;;;;;;4.33;2.10;;;15.00;99.90;;;;;;466870;254;28947;-71
2023/09/22 09:04:16;;;;;;;6.57;2.57;;;15.10;99.90;;;;;;467131;253;28928;-71
2023/09/22 09:06:19;;;;;;;3.30;2.07;;;15.10;99.90;;;;;;467157;250;29379;-74
2023/09/22 09:08:18;;;;;;;4.40;2.03;;;15.20;99.90;;;;;;467091;254;28920;-71
2023/09/22 09:10:20;;;;;;;3.30;2.60;;;15.20;99.90;;;;;;467141;253;28865;-71
2023/09/22 09:12:21;;;;;;;2.00;1.80;;;15.20;99.90;;;;;;467119;253;29458;-72
2023/09/22 09:14:28;;;;;;;4.23;2.20;;;15.20;99.90;;;;;;467132;253;29357;-71
2023/09/22 09:16:23;;;;;;;2.70;2.00;;;15.30;99.90;;;;;;466705;254;29514;-73
2023/09/22 09:18:25;;;;;;;2.10;1.90;;;15.40;99.90;;;;;;467161;253;29447;-71
2023/09/22 09:20:26;;;;;;;4.03;2.17;;;15.50;99.90;;;;;;467171;253;29097;-72
2023/09/22 09:22:28;;;;;;;3.00;1.67;;;15.70;99.90;;;;;;467172;253;28856;-71
2023/09/22 09:24:28;;;;;;;2.43;2.00;;;15.80;99.90;;;;;;467162;254;28835;-72
2023/09/22 09:26:31;;;;;;;4.17;2.10;;;15.90;99.90;;;;;;467175;253;28868;-72
2023/09/22 09:28:31;;;;;;;2.70;2.20;;;15.90;99.90;;;;;;467126;254;28832;-72
2023/09/22 09:30:32;;;;;;;4.40;2.30;;;15.90;99.90;;;;;;467142;254;28875;-71
2023/09/22 09:32:33;;;;;;;2.40;2.20;;;15.90;99.90;;;;;;467178;253;28861;-73
2023/09/22 09:34:35;;;;;;;3.07;1.83;;;16.00;99.90;;;;;;467158;253;28823;-73
2023/09/22 09:36:36;;;;;;;3.50;1.77;;;16.10;99.90;;;;;;467085;253;29276;-73
2023/09/22 09:38:37;;;;;;;7.30;2.40;;;16.20;99.90;;;;;;467155;253;29276;-71
2023/09/22 09:40:38;;;;;;;2.40;2.20;;;16.00;99.90;;;;;;467130;253;29373;-72
2023/09/22 09:42:40;;;;;;;3.90;2.07;;;15.80;99.90;;;;;;467151;254;29392;-73
2023/09/22 09:44:41;;;;;;;4.83;1.80;;;15.60;99.90;;;;;;467122;253;29007;-71
2023/09/22 09:46:42;;;;;;;4.50;1.73;;;15.50;99.90;;;;;;467077;253;28898;-71
2023/09/22 09:48:43;;;;;;;2.60;1.63;;;15.70;99.90;;;;;;467072;253;28833;-71
2023/09/22 09:50:45;;;;;;;6.17;1.97;;;15.80;99.90;;;;;;467075;254;28862;-73
2023/09/22 09:52:48;;;;;;;5.10;2.00;;;15.80;99.90;;;;;;467132;253;28956;-73
2023/09/22 09:54:47;;;;;;;5.07;1.83;;;16.00;99.90;;;;;;467024;253;28927;-71
2023/09/22 09:56:48;;;;;;;3.60;1.73;;;16.10;99.90;;;;;;467083;254;28940;-71
2023/09/22 09:58:50;;;;;;;7.27;2.07;;;16.20;99.90;;;;;;467106;249;28923;-72
2023/09/22 10:00:51;;;;;;;3.50;1.80;;;16.10;99.90;;;;;;467064;253;28841;-72
2023/09/22 10:02:57;;;;;;;6.33;2.03;;;16.20;99.90;;;;;;467079;253;29393;-72
2023/09/22 10:04:53;;;;;;;4.23;2.10;;;16.30;99.90;;;;;;466861;254;29379;-71
2023/09/22 10:06:55;;;;;;;1.87;1.67;;;16.40;99.90;;;;;;467121;253;29349;-73
2023/09/22 10:08:56;;;;;;;2.90;1.60;;;16.50;99.90;;;;;;467152;253;28955;-73
2023/09/22 10:10:58;;;;;;;4.63;1.83;;;16.50;99.90;;;;;;467136;253;28905;-73
2023/09/22 10:12:59;;;;;;;2.50;1.80;;;16.40;99.90;;;;;;467073;254;28859;-74
2023/09/22 10:15:04;;;;;;;2.23;2.00;;;16.50;99.90;;;;;;467137;253;28815;-71
2023/09/22 10:17:01;;;;;;;3.77;1.70;;;16.50;99.90;;;;;;466867;254;28867;-71
2023/09/22 10:19:02;;;;;;;3.90;1.60;;;16.60;99.90;;;;;;467161;253;29238;-75
2023/09/22 10:21:04;;;;;;;3.00;1.20;;;16.30;99.90;;;;;;467132;253;28912;-72
2023/09/22 10:23:05;;;;;;;1.80;1.37;;;16.20;99.90;;;;;;467127;253;29392;-71
2023/09/22 10:25:06;;;;;;;3.37;1.50;;;16.00;99.90;;;;;;467111;253;28825;-71
2023/09/22 10:27:07;;;;;;;5.30;1.57;;;16.10;99.90;;;;;;467119;250;28846;-71
2023/09/22 10:29:09;;;;;;;5.90;1.90;;;16.00;99.90;;;;;;467148;253;28859;-72
2023/09/22 10:31:10;;;;;;;1.70;1.60;;;16.00;99.90;;;;;;467139;254;28920;-71
2023/09/22 10:33:11;;;;;;;3.13;1.60;;;15.90;99.90;;;;;;467126;253;28906;-71